Tiempo atmosférico en la estación meteorológica de San Sebastián Aeropuerto, Gipuzkoa (4 m.)



Fecha
DESCASC
Temp. máxima en grados centígrados (hora)
DESCASC
Temp. mínima en grados centígrados (hora)
DESCASC
Temp. media en grados centígrados
DESCASC
Racha de viento máxima en m/sg (hora)
DESCASC
Velocidad máxima media en intervalos de 10 minutos(hora)
DESCASC
Precipitaciones diarias en mm
DESCASC
Precipitaciones de 00:00 a 06:00 en mm
DESCASC
Precipitaciones de 06:00 a 12:00 en mm
DESCASC
Precipitaciones de 12:00 a 18:00 en mm
DESCASC
Precipitaciones de 18:00 a 24:00 en mm
DESCASC
20-10-2019 16 (01:40) 11.8 (23:40) 13.9 16.39 (12:10) 8.61 (12:10) 33.7 8.2 8.8 11.6 5.1
19-10-2019 21.4 (15:00) 14.8 (00:20) 18.1 6.67 (08:40) 3.89 (18:20) 1.6 0.1 0 0 1.5
18-10-2019 18.6 (16:00) 14.9 (23:20) 16.8 6.11 (07:50) 3.33 (10:30) 3.3 0.3 3 0 0
17-10-2019 25 (17:10) 15.1 (00:00) 20.1 9.72 (18:50) 5.56 (18:50) 3.1 1.2 1.9 0 0
16-10-2019 23.2 (15:30) 14.2 (00:00) 18.7 12.5 (11:10) 9.17 (14:40) 0 0 0 0 0
15-10-2019 20.9 (16:00) 11.7 (00:00) 16.3 10.83 (12:00) 6.94 (03:30) 4.1 3.5 0.6 0 0
14-10-2019 25.7 (02:10) 13 (00:00) 19.4 13.89 (01:00) 9.17 (02:10) 20.2 0 0 13.5 6.7
13-10-2019 30.2 (15:50) 18.3 (00:00) 24.3 14.44 (13:30) 10 (13:20) 0 0 0 0 0
12-10-2019 28.8 (19:50) 18.9 (00:00) 23.8 15 (21:40) 9.72 (20:10) 0 0 0 0 0
11-10-2019 28.8 (14:30) 10.9 (00:00) 19.8 7.78 (14:00) 5.83 (14:00) 0 0 0 0 0
10-10-2019 20.2 (14:00) 12.8 (00:00) 16.5 6.67 (19:00) 3.89 (02:50) 0 0 0 0 0
09-10-2019 19.5 (16:20) 14.9 (00:00) 17.2 10.83 (12:20) 7.22 (12:20) 6.8 0.4 3.6 2.8 0
08-10-2019 25.9 (17:00) 12.4 (00:00) 19.1 9.17 (21:30) 4.72 (20:50) 7 0 0 0 7
07-10-2019 21 (17:20) 13.3 (00:00) 17.2 4.72 (07:00) 3.61 (06:40) -- 0 0 -- 0
06-10-2019 18.7 (11:30) 14.7 (00:00) 16.7 7.78 (13:40) 5 (15:30) 3 0 0 3 0
05-10-2019 21.5 (17:10) 15.4 (00:00) 18.4 5 (16:20) 3.61 (02:40) 0.4 0 0.4 0 0
04-10-2019 18.8 (15:00) 15.3 (00:00) 17 6.11 (12:20) 3.89 (10:40) 2.9 0 1.8 1.1 0
03-10-2019 21.6 (15:30) 14.4 (00:00) 18 5 (15:20) 3.33 (15:20) 0 0 0 0 0
02-10-2019 19.8 (00:10) 15.9 (00:00) 17.8 13.33 (06:00) 7.5 (02:40) 28.1 13.6 10.7 3.8 0
01-10-2019 22.9 (15:50) 16.4 (00:00) 19.6 10.28 (23:10) 5.83 (23:10) 0 0 0 0 0
30-09-2019 24.4 (15:50) 17.2 (00:00) 20.8 6.11 (08:50) 3.89 (15:30) 0.1 0.1 0 0 0
29-09-2019 26 (16:30) 13 (00:00) 19.5 6.67 (13:10) 5 (13:30) 0 0 0 0 0
28-09-2019 21.6 (15:40) 15.9 (00:00) 18.8 6.67 (02:40) 4.72 (02:30) 2 2 0 0 0
27-09-2019 24.2 (12:20) 15.2 (00:00) 19.7 8.89 (13:50) 4.72 (13:50) 1.3 0 0 0 1.3
26-09-2019 22.1 (13:00) 15.5 (00:00) 18.8 6.11 (08:40) 3.89 (13:50) 0 0 0 0 0
25-09-2019 22.7 (13:50) 16.6 (00:00) 19.7 9.17 (15:00) 5.28 (15:00) 0.3 0.1 0.2 0 0
24-09-2019 25.3 (13:30) 16.2 (00:00) 20.8 10.28 (15:10) 6.39 (15:10) 0.1 0 0 0 0.1
23-09-2019 23.1 (13:50) 14 (00:00) 18.6 5 (08:00) 3.61 (14:50) 0 0 0 0 0
22-09-2019 25.8 (00:40) 16.5 (00:00) 21.1 12.5 (03:30) 7.78 (03:30) 14.3 2.3 12 0 0

Gráficas

Temp. máximas Temp. mínimas Temp. medias Precipitaciones Rachas de viento máximas Velocidades máximas media en intervalos de 10 minutos

Datos horarios

Fecha y hora oficial Temperatura (ºC) Velocidad del viento (km/h) Dirección del viento Racha (km/h) Dirección de racha Precipitación (mm) Presión (hPa) Tendencia (hPa) Humedad (%)
2019-10-21 23:00:00 11.7 5 Sur 9 Sur 0 1020.1 0.8 91
2019-10-21 22:00:00 12.9 2 Sudoeste 8 Sur 0 1019.8 1.1 88
2019-10-21 21:00:00 13.4 0 Calma 5 Oeste 0 1019.7 1.4 84
2019-10-21 20:00:00 13.8 0 Calma 8 Sur 0 1019.3 1.1 82
2019-10-21 19:00:00 15.2 4 Norte 8 Norte 0 1018.7 0.5 73
2019-10-21 18:00:00 15.9 2 Norte 9 Nordeste 0 1018.3 0.1 65
2019-10-21 17:00:00 16.3 7 Norte 13 Norte 0 1018.2 -0.3 65
2019-10-21 16:00:00 16.4 8 Norte 13 Norte 0 1018.2 -0.5 63
2019-10-21 15:00:00 16.8 7 Norte 13 Norte 0 1018.2 -0.3 63
2019-10-21 14:00:00 16.5 6 Norte 17 Oeste 0 1018.5 0.1 64
2019-10-21 13:00:00 17.3 10 Noroeste 18 Noroeste 0 1018.7 0.9 58
2019-10-21 12:00:00 15.7 9 Sudoeste 17 Sudoeste 0 1018.5 1 65
2019-10-21 11:00:00 13 9 Sur 17 Sur 0 1018.4 1.5 79
2019-10-21 10:00:00 10.6 13 Sur 15 Sur 0 1017.8 1.3 93
2019-10-21 09:00:00 9.7 10 Sur 15 Sur 0 1017.5 1.4 94
2019-10-21 08:00:00 10.1 9 Sur 15 Sur 0 1016.9 1 93
2019-10-21 07:00:00 9.4 10 Sur 15 Sur 0 1016.5 0.9 96
2019-10-21 06:00:00 10 9 Sur 13 Sur 0 1016.1 0.7 96
2019-10-21 05:00:00 10.5 9 Sur 15 Sur 0 1015.9 0.7 93
2019-10-21 04:00:00 10.8 9 Sur 13 Sur 0 1015.6 0.7 93
2019-10-21 03:00:00 10.8 11 Sur 17 Sudoeste 0 1015.4 1.2 91
2019-10-21 02:00:00 11.3 12 Sudoeste 17 Sudoeste 0 1015.2 1.2 90
2019-10-21 01:00:00 11.8 9 Sudoeste 17 Sudoeste 0 1014.9 1.5 89
2019-10-21 00:00:00 11.8 11 Sudoeste 15 Sudoeste 0 1014.2 1.4 91
2019-10-20 23:00:00 12.1 6 Sur 13 Oeste 0.7 1014 2.2 94
2019-10-20 22:00:00 12 9 Sudoeste 22 Oeste 0 1013.4 2.5 93
2019-10-20 21:00:00 11.9 18 Oeste 42 Noroeste 1.2 1012.8 2.8 89
2019-10-20 20:00:00 12.2 8 Oeste 18 Oeste 2.8 1011.8 2.3 93
2019-10-20 19:00:00 12.5 14 Sudoeste 22 Sudoeste 0.4 1010.9 1.9 92
2019-10-20 18:00:00 13 18 Sudoeste 26 Oeste 0.1 1010 1.4 89
2019-10-20 17:00:00 13.4 8 Norte 17 Oeste 2.2 1009.5 1.4 92
2019-10-20 16:00:00 13.1 17 Sudoeste 37 Oeste 6.8 1009 1.2 90
2019-10-20 15:00:00 13.3 10 Sur 28 Sudoeste 0.8 1008.6 1.8 93
2019-10-20 14:00:00 14.1 14 Oeste 37 Oeste 1.1 1008.1 2.3 89
2019-10-20 13:00:00 14.3 20 Sudoeste 59 Sudoeste 0.6 1007.8 2.6 86
2019-10-20 12:00:00 14.1 30 Oeste 45 Oeste 1.2 1006.8 2.8 90
2019-10-20 11:00:00 15.2 16 Sudoeste 26 Sudoeste 0 1005.8 2.6 92
2019-10-20 10:00:00 13.5 14 Sudoeste 28 Sudoeste 0.5 1005.2 3.4 96
2019-10-20 09:00:00 13.5 16 Sudoeste 39 Sudoeste 4.3 1004 2.9 95
2019-10-20 08:00:00 13.5 27 Sudoeste 42 Sudoeste 1.4 1003.2 2.7 95
2019-10-20 07:00:00 14 22 Sudoeste 41 Sudoeste 1.4 1001.8 1.1 96
2019-10-20 06:00:00 14.5 15 Sudoeste 30 Sudoeste 5.5 1001.1 0.1 95
2019-10-20 05:00:00 15.3 18 Oeste 32 Noroeste 1.6 1000.5 -0.8 93
2019-10-20 04:00:00 15.7 10 Sudoeste 17 Sudoeste 0 1000.7 -1.5 97
2019-10-20 03:00:00 16 10 Noroeste 18 Oeste 0.9 1001 -1.2 97
2019-10-20 02:00:00 15.9 4 Oeste 15 Oeste 0.2 1001.3 -0.4 95
2019-10-20 01:00:00 15.8 9 Sudoeste 18 Sudoeste 0 1002.2 -0.4 95
2019-10-20 00:00:00 15.8 13 Sudoeste 18 Sudoeste 0 1002.2 0.4 95
2019-10-19 23:00:00 16.1 7 Sudoeste 17 Sudoeste 0.8 1001.7 -0.6 94
2019-10-19 22:00:00 16.6 10 Sudoeste 17 Sudoeste 0.7 1002.6 0.5 90
2019-10-19 21:00:00 17.3 7 Sur 9 Sur 0 1001.8 -0.9 83
2019-10-19 20:00:00 17.9 5 Noroeste 21 Norte 0 1002.3 -0.9 78
2019-10-19 19:00:00 18.6 12 Nordeste 24 Este 0 1002.1 -1.3 72
2019-10-19 18:00:00 19 11 Nordeste 15 Nordeste 0 1002.7 -1.3 69
2019-10-19 17:00:00 19.5 7 Norte 17 Norte 0 1003.2 -1.4 65
2019-10-19 16:00:00 20 13 Norte 18 Norte 0 1003.4 -2.1 65
2019-10-19 15:00:00 21.4 9 Norte 11 Norte 0 1004 -1.7 53
2019-10-19 14:00:00 20.5 6 Nordeste 13 Este 0 1004.6 -1.5 59
2019-10-19 13:00:00 20.3 9 Nordeste 13 Nordeste 0 1005.5 -0.9 57
2019-10-19 12:00:00 19.4 0 Calma 4 Oeste 0 1005.7 -0.3 59
2019-10-19 11:00:00 18.4 6 Sur 17 Sudoeste 0 1006.1 -0.2 63
2019-10-19 10:00:00 18 12 Oeste 21 Oeste 0 1006.4 -0.3 58
2019-10-19 09:00:00 16 9 Sur 24 Sur 0 1006 -0.8 71
2019-10-19 08:00:00 17.2 10 Sur 18 Sur 0 1006.3 -0.8 68
2019-10-19 07:00:00 17.3 12 Sudoeste 17 Oeste 0 1006.7 -0.7 62
2019-10-19 06:00:00 17.1 10 Sudoeste 17 Sudoeste 0 1006.8 -1.2 63
2019-10-19 05:00:00 17.9 9 Sur 18 Oeste 0 1007.1 -1.4 65
2019-10-19 04:00:00 18.4 12 Oeste 21 Oeste 0 1007.4 -2.1 57
2019-10-19 03:00:00 17.2 12 Sudoeste 21 Sudoeste 0 1008 -1.5 71
2019-10-19 02:00:00 15.4 11 Sudoeste 17 Sudoeste 0 1008.5 -1.2 93
2019-10-19 01:00:00 15 0 Calma 11 Sur 0.1 1009.5 -1.1 93
2019-10-19 00:00:00 15 5 Sudoeste 11 Sur 0 1009.5 -1.5 93
2019-10-18 23:00:00 15 7 Sur 9 Sur 0 1009.7 -1.8 92
2019-10-18 22:00:00 15.9 5 Sudoeste 13 Sudeste 0 1010.6 -1.4 88
2019-10-18 21:00:00 16.3 0 Calma 9 Sur 0 1011 -1.6 87
2019-10-18 20:00:00 17.4 7 Este 11 Este 0 1011.5 -1.9 81
2019-10-18 19:00:00 17.8 7 Nordeste 22 Este 0 1012 -1.9 75
2019-10-18 18:00:00 18.3 8 Este 11 Este 0 1012.6 -1.7 70
2019-10-18 17:00:00 18.5 4 Nordeste 8 Nordeste 0 1013.4 -1.6 68
2019-10-18 16:00:00 18.5 2 Sudeste 9 Sudeste 0 1013.9 -1.7 70
2019-10-18 15:00:00 18.2 6 Sur 11 Sur 0 1014.3 -1.7 72
2019-10-18 14:00:00 17.9 8 Sudoeste -- -- -- 1015 -0.8 74
2019-10-18 13:00:00 17.4 9 Oeste 15 Sudoeste 0 1015.6 -0.5 83
2019-10-18 12:00:00 17.1 11 Sudoeste 15 Sudoeste 0 1016 0.4 88
2019-10-18 11:00:00 16.1 9 Sudoeste 15 Sudoeste 0 1015.8 0.5 93
2019-10-18 10:00:00 15.4 10 Sudoeste 15 Sudoeste 0 1016.1 1.4 96
2019-10-18 09:00:00 15.4 9 Sur 17 Sur 0 1015.6 1.5 94
2019-10-18 08:00:00 15.3 8 Oeste 22 Noroeste 2 1015.3 1.8 94
2019-10-18 07:00:00 15.8 9 Noroeste 18 Noroeste 1 1014.7 1.3 95
2019-10-18 06:00:00 16.2 4 Sudoeste 8 Sudoeste 0.3 1014.1 0.8 95
2019-10-18 05:00:00 16 6 Sudoeste 9 Sudoeste 0 1013.5 -0.3 94
2019-10-18 04:00:00 16 5 Sudoeste 8 Sur 0 1013.4 -0.6 94
2019-10-18 03:00:00 16.1 5 Sur 8 Sudeste 0 1013.3 -0.4 94
2019-10-18 02:00:00 16.3 8 Sur -- -- 0 1013.8 -0.2 93
2019-10-18 01:00:00 17 4 Sudoeste 9 Sur 0 1014 -0.2 91
2019-10-18 00:00:00 17.5 2 Oeste 8 Sudeste 0 1013.7 -1.2 88
2019-10-17 23:00:00 18 7 Sudeste 9 Sudeste 0 1014 -0.6 86
2019-10-17 22:00:00 18.5 5 Sudeste 9 Sur 0 1014.2 0.8 84
2019-10-17 21:00:00 18.7 4 Oeste 17 Noroeste 0 1014.9 2.7 81
2019-10-17 20:00:00 18.7 12 Noroeste 28 Noroeste 0 1014.6 2.3 83
2019-10-17 19:00:00 20.8 15 Noroeste 35 Oeste 0 1013.4 0.9 71
2019-10-17 18:00:00 24.8 11 Sudoeste 26 Sudoeste 0 1012.2 -1.1 44
2019-10-17 17:00:00 24.6 15 Sudoeste 26 Sudoeste 0 1012.3 -1.2 44
2019-10-17 16:00:00 24.1 12 Sudoeste 28 Sur 0 1012.5 -1.3 45
2019-10-17 15:00:00 24.1 18 Sur 26 Sudoeste 0 1013.3 -0.6 44
2019-10-17 14:00:00 23.9 14 Sudoeste 30 Sudoeste 0 1013.5 0 45
2019-10-17 13:00:00 22.7 14 Sur 28 Sur 0 1013.8 0.7 49
2019-10-17 12:00:00 20.5 8 Sur 17 Sudoeste 0 1013.9 1.6 62
2019-10-17 11:00:00 18.3 9 Sudoeste 13 Sudoeste 0 1013.5 1.1 68
2019-10-17 10:00:00 16.4 6 Sur 24 Sur 0 1013.1 0.5 77
2019-10-17 09:00:00 16.2 17 Sur 26 Sur 0.1 1012.3 -0.1 82
2019-10-17 08:00:00 15.3 12 Sur 17 Sur 1.1 1012.4 0.7 89
2019-10-17 07:00:00 15.4 11 Sudoeste 15 Sur 0.7 1012.6 0.7 92
2019-10-17 06:00:00 16.6 13 Sur 15 Sur 1.2 1012.4 1 80
2019-10-17 05:00:00 19 14 Sudoeste 18 Sudoeste 0 1011.7 0.3 56
2019-10-17 04:00:00 19.2 6 Sur 13 Sudoeste 0 1011.9 -0.6 54
2019-10-17 03:00:00 17.5 3 Sur 13 Sur 0 1011.4 -1.8 65
2019-10-17 02:00:00 16.6 10 Sur 13 Sur 0 1011.4 -1.3 77
2019-10-17 01:00:00 16.7 3 Oeste 11 Sur 0 1012.5 -0.2 74
2019-10-17 00:00:00 17.1 5 Sudoeste 13 Sur 0 1013.2 1 69
2019-10-16 23:00:00 18 5 Sur 9 Sur 0 1012.7 0.5 68
2019-10-16 22:00:00 19.4 4 Oeste 11 Sudoeste 0 1012.7 0.8 54
2019-10-16 21:00:00 20.1 4 Sur 13 Sur 0 1012.2 0.6 49
2019-10-16 20:00:00 20.9 6 Sur 18 Sur 0 1012.2 0.3 47
2019-10-16 19:00:00 21.8 10 Sudoeste 30 Sudoeste 0 1011.9 -0.6 43
2019-10-16 18:00:00 22.8 15 Sudoeste 37 Sudoeste 0 1011.6 -1.3 41
2019-10-16 17:00:00 22.7 24 Sudoeste 35 Sudoeste 0 1011.9 -1.3 38
2019-10-16 16:00:00 23.1 28 Sur 41 Sur 0 1012.5 -1.4 37
2019-10-16 15:00:00 22.8 27 Sudoeste 42 Sudoeste 0 1012.9 -1.4 36
2019-10-16 14:00:00 20.8 12 Sur 30 Sur 0 1013.2 -0.7 43
2019-10-16 13:00:00 20 15 Sur 35 Sur 0 1013.9 0 45
2019-10-16 12:00:00 21 23 Sur 45 Sur 0 1014.3 0.7 41
2019-10-16 11:00:00 20.1 31 Sur 41 Sur 0 1013.9 0.5 43
2019-10-16 10:00:00 18.6 21 Sur 30 Sur 0 1013.9 0.4 45
2019-10-16 09:00:00 16.9 16 Sur 24 Sur 0 1013.6 -0.1 54
2019-10-16 08:00:00 17 15 Sur 18 Sudoeste 0 1013.4 -0.8 53
2019-10-16 07:00:00 17 17 Sudoeste 24 Sudeste 0 1013.5 -1.2 54
2019-10-16 06:00:00 16.6 9 Sur 24 Sudoeste 0 1013.7 -1.6 52
2019-10-16 05:00:00 16.4 16 Sudoeste 24 Sudoeste 0 1014.2 -1.5 55
2019-10-16 04:00:00 15.6 12 Sur 17 Sudoeste 0 1014.7 -1.3 60
2019-10-16 03:00:00 14.5 11 Sur 17 Sur 0 1015.3 -0.9 63
2019-10-16 02:00:00 14.9 10 Sur 15 Sur 0 1015.7 -0.9 63
2019-10-16 01:00:00 15.5 12 Sur 17 Sur 0 1016 -0.6 59
2019-10-16 00:00:00 15.5 10 Sur 18 Sudeste 0 1016.2 -0.5 60
2019-10-15 23:00:00 14.2 11 Sur 15 Sur 0 1016.6 -0.2 70
2019-10-15 22:00:00 15.7 9 Sur 15 Sur 0 1016.6 -0.1 58
2019-10-15 21:00:00 15 5 Sur 9 Sur 0 1016.7 0 76
2019-10-15 20:00:00 16.4 7 Sur -- -- 0 1016.8 0 75
2019-10-15 19:00:00 18.2 8 Sur 15 Sur 0 1016.7 -0.2 61
2019-10-15 18:00:00 19.5 7 Oeste 13 Oeste 0 1016.7 -0.3 49
2019-10-15 17:00:00 20.6 7 Oeste 18 Oeste 0 1016.8 -0.4 43
2019-10-15 16:00:00 20.7 10 Oeste 21 Sudoeste 0 1016.9 -0.6 39
2019-10-15 15:00:00 19.8 14 Oeste 33 Sudoeste 0 1017 -0.4 42
2019-10-15 14:00:00 19 17 Sudoeste 37 Oeste 0 1017.2 0.3 43
2019-10-15 13:00:00 18.1 18 Oeste 35 Oeste 0 1017.5 1.1 47
2019-10-15 12:00:00 17.5 22 Sudoeste 39 Sudoeste 0 1017.4 1.8 49
2019-10-15 11:00:00 16.2 18 Sudoeste 32 Sudoeste 0 1016.9 1.8 58
2019-10-15 10:00:00 14.2 21 Sudoeste 28 Sudoeste 0 1016.4 1.4 68
2019-10-15 09:00:00 12 14 Sudoeste 21 Oeste 0 1015.6 1 82
2019-10-15 08:00:00 12.8 17 Sudoeste 28 Oeste 0.3 1015.1 1 74
2019-10-15 07:00:00 12.2 13 Sudoeste 33 Oeste 0.3 1015 1.2 84
2019-10-15 06:00:00 12 10 Sudoeste 28 Sudoeste 0.8 1014.6 1.1 85
2019-10-15 05:00:00 13 18 Sudoeste 32 Sudoeste 0 1014.1 0.7 71
2019-10-15 04:00:00 12.8 19 Sudoeste 35 Sudoeste 0 1013.8 0.9 74
2019-10-15 03:00:00 12.4 16 Sudoeste 28 Sudoeste 0 1013.5 0.6 85
2019-10-15 02:00:00 12.5 16 Sudoeste 24 Sudoeste 0.1 1013.4 1.5 92
2019-10-15 01:00:00 12.5 15 Sudoeste 28 Sudoeste 2.6 1012.9 1.9 93
2019-10-15 00:00:00 13.1 19 Sudoeste 37 Oeste 3.2 1012.9 2.9 93
2019-10-14 23:00:00 14.6 22 Oeste 35 Oeste 2.3 1011.9 3.4 86
2019-10-14 22:00:00 15.7 22 Oeste 35 Oeste 1.2 1011 3.1 84
2019-10-14 21:00:00 17.5 10 Sudoeste 17 Sudoeste 0 1010 2.2 82
2019-10-14 20:00:00 17.6 5 Noroeste 13 Norte 0 1008.5 0.6 84
2019-10-14 19:00:00 18.5 8 Norte 17 Norte 0 1007.9 0.7 77
2019-10-14 18:00:00 19 12 Noroeste 22 Norte 0 1007.8 1.3 78
2019-10-14 17:00:00 18.6 11 Noroeste 21 Noroeste 0 1007.9 2 84
2019-10-14 16:00:00 19.2 13 Noroeste 24 Norte 0.6 1007.2 1.4 85
2019-10-14 15:00:00 16.8 14 Sudoeste 41 Noroeste 12.9 1006.5 0.8 93
2019-10-14 14:00:00 20.3 13 Norte 28 Noroeste 0 1005.9 -0.1 77
2019-10-14 13:00:00 20.9 15 Norte 28 Noroeste 0 1005.8 -0.1 76
2019-10-14 12:00:00 20.2 10 Noroeste 28 Noroeste 0 1005.7 0.9 80
2019-10-14 11:00:00 20.2 12 Noroeste 22 Noroeste 0 1006 1.6 79
2019-10-14 10:00:00 21.6 17 Oeste 37 Sur 0 1005.9 1.1 73
2019-10-14 09:00:00 24.3 14 Sur 35 Sudoeste 0 1004.8 0 49
2019-10-14 08:00:00 24.1 22 Sur 41 Sur 0 1004.4 -0.9 49
2019-10-14 07:00:00 24.6 24 Sur 37 Sur 0 1004.8 -1.6 46
2019-10-14 06:00:00 24.4 17 Sur 42 Sur 0 1004.8 -2.5 46
2019-10-14 05:00:00 23.9 10 Sudeste 24 Sudeste 0 1005.3 -2.6 48
2019-10-14 04:00:00 24.4 9 Sur 28 Sur 0 1006.4 -1.8 46
2019-10-14 03:00:00 24.2 15 Sur 48 Sur 0 1007.3 -1.5 47
2019-10-14 02:00:00 25.5 32 Sur 48 Sur 0 1007.9 -1.2 43
2019-10-14 01:00:00 25.3 32 Sur 50 Sur 0 1008.2 -1 51
2019-10-14 00:00:00 18.4 7 Sudoeste 13 Sudoeste 0 1008.8 -0.8 85
2019-10-13 23:00:00 19.3 3 Sudoeste 9 Oeste 0 1009.1 0.2 82
2019-10-13 22:00:00 21 9 Sudoeste 17 Sudoeste 0 1009.2 0.6 74
2019-10-13 21:00:00 22.2 8 Oeste 26 Sudoeste 0 1009.6 0.7 69
2019-10-13 20:00:00 24.3 16 Sudoeste 21 Sudoeste 0 1008.9 -0.5 59
2019-10-13 19:00:00 27.4 7 Sur 24 Sur 0 1008.6 -0.9 44
2019-10-13 18:00:00 28.9 14 Sur 32 Sur 0 1008.9 -0.6 38
2019-10-13 17:00:00 29.3 22 Sur 37 Sur 0 1009.4 -0.5 36
2019-10-13 16:00:00 30 18 Sur 45 Sur 0 1009.5 -0.7 35
2019-10-13 15:00:00 29.5 19 Sur 39 Sur 0 1009.5 -1.3 36
2019-10-13 14:00:00 28.6 26 Sur 52 Sur 0 1009.9 -0.6 40
2019-10-13 13:00:00 27.5 35 Sur 50 Sur 0 1010.2 0.2 42
2019-10-13 12:00:00 26.8 28 Sur 46 Sur 0 1010.8 1.4 47
2019-10-13 11:00:00 26.1 28 Sudoeste 45 Sur 0 1010.5 1.6 48
2019-10-13 10:00:00 24.5 20 Sur 33 Sur 0 1010 1.5 51
2019-10-13 09:00:00 23.6 19 Sur 42 Sur 0 1009.4 1.3 53
2019-10-13 08:00:00 22.4 14 Sudeste 24 Sur 0 1008.9 0.7 57
2019-10-13 07:00:00 23.8 17 Sudeste 30 Sur 0 1008.5 -0.8 50
2019-10-13 06:00:00 24.4 6 Sudoeste 26 Sudoeste 0 1008.1 -1.5 46
2019-10-13 05:00:00 24.3 14 Sur 30 Sur 0 1008.2 -1.4 46
2019-10-13 04:00:00 24.4 15 Sur 26 Sur 0 1009.3 -0.2 50
2019-10-13 03:00:00 25.2 22 Sur 45 Sur 0 1009.6 0 48
2019-10-13 02:00:00 25.7 21 Sur 41 Sur 0 1009.6 -0.2 48
2019-10-13 01:00:00 26.4 24 Sur 45 Sur 0 1009.5 0.3 46
2019-10-13 00:00:00 26.4 23 Sur 45 Sur 0 1009.6 0.3 47
2019-10-12 23:00:00 27.1 21 Sur 50 Sur 0 1009.8 0.5 43
2019-10-12 22:00:00 27 30 Sur 54 Sur 0 1009.2 0.1 43
2019-10-12 21:00:00 27.1 29 Sur 48 Sur 0 1009.3 0.2 44
2019-10-12 20:00:00 28.4 35 Sur 48 Sur 0 1009.3 -0.4 39
2019-10-12 19:00:00 26.2 5 Sudoeste 17 Sudoeste 0 1009.1 -1.4 50
2019-10-12 18:00:00 27.7 11 Sur 26 Sur 0 1009.1 -2.1 42
2019-10-12 17:00:00 26.4 15 Sur 26 Sudeste 0 1009.7 -2.2 51
2019-10-12 16:00:00 24.8 6 Sur 15 Norte 0 1010.5 -1.4 65
2019-10-12 15:00:00 25.4 7 Norte 15 Norte 0 1011.2 -1.3 59
2019-10-12 14:00:00 25.7 3 Sur 15 Sudeste 0 1011.9 -0.3 51
2019-10-12 13:00:00 25.1 12 Sur 24 Sur 0 1011.9 0 55
2019-10-12 12:00:00 25.2 10 Sur 17 Sur 0 1012.5 1.4 53
2019-10-12 11:00:00 25.7 14 Sur 32 Sudoeste 0 1012.2 1.1 49
2019-10-12 10:00:00 24.6 15 Sudoeste 26 Oeste 0 1011.9 0.6 55
2019-10-12 09:00:00 24.2 11 Sudoeste 28 Sudoeste 0 1011.1 -0.4 57
2019-10-12 08:00:00 24.5 15 Sur 30 Sudoeste 0 1011.1 -0.4 55
2019-10-12 07:00:00 20.5 11 Sur 15 Sur 0 1011.3 -0.5 79
2019-10-12 06:00:00 19.3 2 Norte 13 Nordeste 0 1011.5 -1 94
2019-10-12 05:00:00 19 4 Norte 9 Nordeste 0 1011.5 -1.3 93
2019-10-12 04:00:00 19.1 5 Nordeste 8 Nordeste 0 1011.8 -0.9 92
2019-10-12 03:00:00 19.5 0 Calma 8 Oeste 0 1012.5 -0.1 90
2019-10-12 02:00:00 20.7 0 Calma 21 Norte 0 1012.8 0.1 85
2019-10-12 01:00:00 23 17 Norte 26 Norte 0 1012.7 0.2 73
2019-10-12 00:00:00 21.7 9 Sur 15 Sur 0 1012.6 -0.1 72
2019-10-11 23:00:00 19.9 10 Sudoeste 17 Sudoeste 0 1012.7 -0.2 83
2019-10-11 22:00:00 19.3 8 Sur 13 Sur 0 1012.5 -0.4 87
2019-10-11 21:00:00 20.2 2 Oeste 9 Oeste 0 1012.7 -0.6 83
2019-10-11 20:00:00 22 2 Sudeste 13 Norte 0 1012.9 -0.7 81
2019-10-11 19:00:00 23.6 5 Norte 15 Norte 0 1012.9 -1.2 72
2019-10-11 18:00:00 24.9 6 Norte 15 Norte 0 1013.3 -1.4 63
2019-10-11 17:00:00 26.2 10 Norte 13 Norte 0 1013.6 -2.2 55
2019-10-11 16:00:00 26.7 7 Nordeste 17 Norte 0 1014.1 -2.3 49
2019-10-11 15:00:00 27.6 9 Norte 28 Sudoeste 0 1014.7 -1.9 46
2019-10-11 14:00:00 27.9 21 Sur 28 Sur 0 1015.8 -0.8 41
2019-10-11 13:00:00 26.8 10 Sur 22 Sudoeste 0 1016.4 0.1 44
2019-10-11 12:00:00 25.2 6 Noroeste 11 Oeste 0 1016.6 0.7 48
2019-10-11 11:00:00 20.9 5 Norte 13 Este 0 1016.6 0.9 65
2019-10-11 10:00:00 15.6 0 Calma 8 Sudoeste 0 1016.3 0.6 86
2019-10-11 09:00:00 11.9 0 Calma 8 Oeste 0 1015.9 -0.2 96
2019-10-11 08:00:00 11.3 6 Sudoeste 11 Sudoeste 0 1015.7 -1 95
2019-10-11 07:00:00 11.1 5 Sudoeste 9 Sudoeste 0 1015.7 -1.8 96
2019-10-11 06:00:00 11.2 2 Sudoeste 9 Sudoeste 0 1016.1 -2.4 95
2019-10-11 05:00:00 11.5 6 Sudoeste 9 Sudoeste 0 1016.7 -2.3 95
2019-10-11 04:00:00 12 8 Sudoeste -- -- 0 1017.5 -2.1 95
2019-10-11 03:00:00 12 7 Sur 9 Sur 0 1018.5 -1.5 94
2019-10-11 02:00:00 12.6 6 Sur 9 Sur 0 1019 -1.3 95
2019-10-11 01:00:00 13.2 6 Sudoeste 8 Sudoeste 0 1019.6 -1.1 93
2019-10-11 00:00:00 13.8 5 Oeste 21 Sudeste 0 1020 -0.8 91
2019-10-10 23:00:00 14.5 9 Sudeste 15 Sudeste 0 1020.3 -0.4 89
2019-10-10 22:00:00 15 5 Sudoeste 9 Sudoeste 0 1020.7 -0.1 88
2019-10-10 21:00:00 16 7 Sudoeste 17 Sudeste 0 1020.8 -0.2 86
2019-10-10 20:00:00 18.1 8 Este 13 Nordeste 0 1020.7 -0.7 75
2019-10-10 19:00:00 18.8 12 Nordeste 24 Este 0 1020.8 -1 69
2019-10-10 18:00:00 19.3 12 Nordeste 17 Nordeste 0 1021 -1.2 67
2019-10-10 17:00:00 19.9 12 Nordeste 17 Nordeste 0 1021.4 -1.4 63
2019-10-10 16:00:00 20 11 Norte 17 Norte 0 1021.8 -1.5 62
2019-10-10 15:00:00 20 11 Norte 17 Nordeste 0 1022.2 -1.6 59
2019-10-10 14:00:00 20.1 11 Norte 15 Nordeste 0 1022.8 -1.1 62
2019-10-10 13:00:00 19.8 5 Sudeste 9 Sur 0 1023.3 -0.4 60
2019-10-10 12:00:00 17.4 8 Sur 11 Sudoeste 0 1023.8 0.6 74
2019-10-10 11:00:00 15 9 Sur 13 Sudeste 0 1023.9 1.3 85
2019-10-10 10:00:00 13.9 8 Sur 15 Sur 0 1023.7 1.2 89
2019-10-10 09:00:00 13.4 9 Sur 13 Sur 0 1023.2 0.7 91
2019-10-10 08:00:00 13 9 Sur 15 Sur 0 1022.6 0.1 93
2019-10-10 07:00:00 12.9 12 Sur 15 Sur 0 1022.5 0.3 93
2019-10-10 06:00:00 13.1 10 Sur -- -- -- 1022.5 0 90
2019-10-10 05:00:00 13.8 12 Sur 15 Sudoeste 0 1022.5 0.1 89
2019-10-10 04:00:00 14.3 13 Sur 17 Sur 0 1022.2 -0.5 88
2019-10-10 03:00:00 14.3 13 Sur 17 Sur 0 1022.5 -0.2 87
2019-10-10 02:00:00 14.9 14 Sur 17 Sudoeste 0 1022.4 -0.1 86
2019-10-10 01:00:00 15.2 9 Sudoeste 13 Sur 0 1022.7 0.1 87
2019-10-10 00:00:00 15.3 9 Sudoeste 13 Sudoeste 0 1022.7 0.3 88
2019-10-09 23:00:00 15.4 11 Sudoeste 13 Sudoeste 0 1022.5 0.3 89
2019-10-09 22:00:00 15.9 10 Sur 13 Sur 0 1022.6 0.7 86
2019-10-09 21:00:00 16.7 5 Sudoeste 13 Oeste 0 1022.4 0.7 77
2019-10-09 20:00:00 17.2 8 Oeste 17 Oeste 0 1022.2 0.5 73
2019-10-09 19:00:00 18.1 8 Noroeste 26 Noroeste 0 1021.9 0.2 71
2019-10-09 18:00:00 18.6 15 Oeste 26 Oeste 0 1021.7 -0.2 69
2019-10-09 17:00:00 18.9 8 Oeste 24 Oeste 0 1021.7 -0.2 72
2019-10-09 16:00:00 18 16 Oeste 24 Oeste 0 1021.7 -0.5 78
2019-10-09 15:00:00 16.1 13 Sudoeste 32 Noroeste 1.2 1021.9 -0.2 85
2019-10-09 14:00:00 17.7 12 Noroeste 33 Oeste 0 1021.9 0.3 78
2019-10-09 13:00:00 16.1 14 Sudoeste 39 Oeste 1.6 1022.2 1.2 90
2019-10-09 12:00:00 17.1 14 Oeste 32 Oeste 0.4 1022.1 1.4 84
2019-10-09 11:00:00 16.7 14 Sudoeste 22 Sudoeste 0 1021.6 1.4 86
2019-10-09 10:00:00 15.4 13 Sudoeste 21 Sudoeste 0 1021 1.1 94
2019-10-09 09:00:00 15.1 11 Sudoeste 21 Sudeste 0.6 1020.7 1.1 95
2019-10-09 08:00:00 15.4 10 Sudoeste 17 Sur 0 1020.2 1.4 95
2019-10-09 07:00:00 15.4 4 Sudoeste 21 Noroeste 2.6 1019.9 1.4 96
2019-10-09 06:00:00 15.6 9 Oeste 21 Sudoeste 0.4 1019.6 0.8 95
2019-10-09 05:00:00 15.9 10 Sudoeste 17 Sudoeste 0 1018.8 -0.3 94
2019-10-09 04:00:00 16 11 Sudoeste 18 Sudoeste 0 1018.5 -0.9 95
2019-10-09 03:00:00 16.5 8 Sudoeste 17 Sur 0 1018.8 -0.9 94
2019-10-09 02:00:00 16.5 12 Sudoeste 15 Sudoeste 0 1019.1 -0.8 96
2019-10-09 01:00:00 16.9 8 Sudoeste 9 Sudoeste 0 1019.4 -0.2 96
2019-10-09 00:00:00 17 8 Sur 13 Sudoeste 1.3 1019.7 1.2 96
2019-10-08 23:00:00 17.3 6 Sudoeste 28 Norte 0.4 1019.9 1.8 94
2019-10-08 22:00:00 17.9 12 Norte 33 Noroeste 2.5 1019.6 2.2 96
2019-10-08 21:00:00 19.1 15 Noroeste 28 Norte 2.8 1018.5 1.5 95
2019-10-08 20:00:00 20.5 12 Oeste 26 Noroeste 0 1018.1 1.5 85
2019-10-08 19:00:00 23.3 9 Oeste 15 Noroeste 0 1017.4 0.9 58
2019-10-08 18:00:00 25.2 11 Sudoeste 15 Sudoeste 0 1017 0.7 47
2019-10-08 17:00:00 25.8 7 Oeste 21 Oeste 0 1016.6 0.1 53
2019-10-08 16:00:00 24.4 15 Noroeste 24 Noroeste 0 1016.5 -0.3 38
2019-10-08 15:00:00 23.2 12 Este 17 Este 0 1016.3 -0.7 49
2019-10-08 14:00:00 23.4 10 Norte 13 Norte 0 1016.5 -0.5 44
2019-10-08 13:00:00 22.6 4 Este 8 Este 0 1016.8 -0.4 39
2019-10-08 12:00:00 20 5 Sur 15 Sudeste 0 1017 -0.3 47
2019-10-08 11:00:00 17.8 8 Sur 11 Sur 0 1017 -0.3 51
2019-10-08 10:00:00 14.8 7 Sur 11 Sur 0 1017.2 -0.1 67
2019-10-08 09:00:00 13 9 Sur 22 Sudeste 0 1017.3 -0.2 78
2019-10-08 08:00:00 12.9 9 Sur 15 Sur 0 1017.3 -0.9 78
2019-10-08 07:00:00 13 11 Sur 13 Sur 0 1017.3 -1.5 80
2019-10-08 06:00:00 12.9 10 Sur 15 Sur 0 1017.5 -1.8 85
2019-10-08 05:00:00 13.4 10 Sur 15 Sur 0 1018.2 -1.3 84
2019-10-08 04:00:00 13.9 13 Sur 17 Sur 0 1018.8 -0.9 83
2019-10-08 03:00:00 13.9 9 Sur 13 Sur 0 1019.3 -0.6 84
2019-10-08 02:00:00 13.6 9 Sur 13 Sur 0 1019.5 -0.5 86
2019-10-08 01:00:00 14.2 10 Sur 13 Sur 0 1019.7 -0.2 83
2019-10-08 00:00:00 14.8 8 Sur 13 Sur 0 1019.9 0 84
2019-10-07 23:00:00 15 8 Sur 11 Sur 0 1020 0 90
2019-10-07 22:00:00 15.8 7 Sur 11 Sur 0 1019.9 0.1 89
2019-10-07 21:00:00 17.1 6 Sur 11 Sur 0 1019.9 -0.1 86
2019-10-07 20:00:00 18.6 3 Noroeste 9 Nordeste 0 1020 -0.1 80
2019-10-07 19:00:00 20.1 7 Norte 11 Nordeste 0 1019.8 -1 72
2019-10-07 18:00:00 20.8 10 Nordeste 15 Norte 0 1020 -0.9 67
2019-10-07 17:00:00 20.8 8 Norte 15 Nordeste 0 1020.1 -1.1 65
2019-10-07 16:00:00 20 12 Nordeste 17 Nordeste 0 1020.8 -0.8 67
2019-10-07 15:00:00 20.3 11 Norte 15 Nordeste 0 1020.9 -0.9 66
2019-10-07 14:00:00 19.8 4 Este 11 Sur 0 1021.2 -0.7 64
2019-10-07 13:00:00 19.1 5 Norte 13 Este -- 1021.6 0.3 72
2019-10-07 12:00:00 18.6 4 Sudoeste 9 Sur -- 1021.8 0.6 73
2019-10-07 11:00:00 17.1 6 Sudeste 15 Sudeste 0 1021.9 0.6 80
2019-10-07 10:00:00 14.7 8 Sur 13 Sudeste 0 1021.3 0.7 92
2019-10-07 09:00:00 13.9 7 Sur 15 Sur 0 1021.2 0.9 93
2019-10-07 08:00:00 13.7 10 Sur 15 Sur 0 1021.3 0.7 94
2019-10-07 07:00:00 13.4 12 Sur 17 Sur 0 1020.6 -0.7 95
2019-10-07 06:00:00 13.4 11 Sur 15 Sur 0 1020.3 -1.6 95
2019-10-07 05:00:00 13.8 12 Sur 15 Sur 0 1020.6 -1.5 93
2019-10-07 04:00:00 13.8 11 Sur 15 Sur 0 1021.3 -1.2 94
2019-10-07 03:00:00 13.9 11 Sur 15 Sur 0 1021.9 -1.2 95
2019-10-07 02:00:00 13.9 8 Sur 9 Sur 0 1022.1 -0.8 95
2019-10-07 01:00:00 14 6 Sur 9 Sur 0 1022.5 -0.2 95
2019-10-07 00:00:00 14.7 8 Sur 11 Sur 0 1023.1 0.9 93
2019-10-06 23:00:00 16.1 9 Sur 13 Sur 0 1022.9 1 89
2019-10-06 22:00:00 17 8 Noroeste 17 Noroeste 0 1022.7 0.9 76
2019-10-06 21:00:00 17.4 8 Noroeste 17 Noroeste 0 1022.2 1 78
2019-10-06 20:00:00 17.6 8 Noroeste 21 Norte 0 1021.9 0.9 85
2019-10-06 19:00:00 18 8 Noroeste 15 Noroeste 0 1021.8 0.7 89
2019-10-06 18:00:00 18.2 6 Oeste 18 Sudoeste 0 1021.2 0.3 89
2019-10-06 17:00:00 18.1 9 Sudoeste 18 Oeste 1.1 1021 -0.3 89
2019-10-06 16:00:00 18.2 15 Oeste 26 Oeste 0.1 1021.1 -0.2 88
2019-10-06 15:00:00 18.3 15 Sudoeste 22 Sudoeste 0 1020.9 0.2 91
2019-10-06 14:00:00 17.7 13 Sudoeste 28 Sur 1.8 1021.3 0.6 89
2019-10-06 13:00:00 18.5 12 Sudoeste 22 Sudoeste 0 1021.3 0.9 81
2019-10-06 12:00:00 17.9 10 Sudoeste 21 Sudoeste 0 1020.7 0.9 84
2019-10-06 11:00:00 17.9 12 Sudoeste 17 Sudoeste 0 1020.7 1.3 76
2019-10-06 10:00:00 16.9 12 Sudoeste 17 Sudoeste 0 1020.4 0.8 79
2019-10-06 09:00:00 16.3 12 Sur 15 Sur 0 1019.8 0.6 83
2019-10-06 08:00:00 16 11 Sur 15 Sur 0 1019.4 0.1 88
2019-10-06 07:00:00 16.2 12 Sur 15 Sur 0 1019.6 0.2 84
2019-10-06 06:00:00 16.2 11 Sudoeste 15 Sur 0 1019.2 -0.4 85
2019-10-06 05:00:00 16.7 10 Sudoeste 13 Sudoeste 0 1019.3 0.3 85
2019-10-06 04:00:00 17 9 Sudoeste 21 Sudoeste 0 1019.4 -0.3 86
2019-10-06 03:00:00 17.2 11 Sudoeste 15 Sudoeste 0 1019.6 0.6 86
2019-10-06 02:00:00 17.1 8 Sudoeste 13 Sur 0 1019 -0.6 87
2019-10-06 01:00:00 17.4 5 Sudoeste 11 Sudoeste 0 1019.7 0.3 86
2019-10-06 00:00:00 17.1 6 Sudoeste 11 Sudoeste 0 1019 -0.1 87
2019-10-05 23:00:00 17.4 7 Sudoeste 13 Sudoeste 0 1019.6 1 86
2019-10-05 22:00:00 17.8 7 Sudoeste 9 Sudoeste 0 1019.4 1.3 84
2019-10-05 21:00:00 18.5 4 Oeste 9 Norte 0 1019.1 1.6 79
2019-10-05 20:00:00 19.2 6 Norte 13 Norte 0 1018.6 1 75
2019-10-05 19:00:00 19.9 8 Norte 13 Norte 0 1018.1 0.5 69
2019-10-05 18:00:00 20.6 8 Norte 15 Norte 0 1017.5 -0.4 65
2019-10-05 17:00:00 21.2 9 Norte 18 Norte 0 1017.6 -0.8 64
2019-10-05 16:00:00 20.5 11 Nordeste 15 Nordeste 0 1017.6 -0.6 64
2019-10-05 15:00:00 20.5 11 Nordeste 15 Norte 0 1017.9 -0.5 66
2019-10-05 14:00:00 20.3 9 Norte 15 Norte 0 1018.4 -0.1 67
2019-10-05 13:00:00 19.4 9 Norte 13 Norte 0 1018.2 -0.1 76
2019-10-05 12:00:00 18.8 3 Sur 11 Sudoeste 0 1018.4 0.5 80
2019-10-05 11:00:00 17.1 8 Sudoeste 11 Sudoeste 0 1018.5 1 92
2019-10-05 10:00:00 16 7 Sudoeste 15 Sur 0 1018.3 0.8 98
2019-10-05 09:00:00 15.6 12 Sudoeste 15 Sudoeste 0.2 1017.9 0.2 98
2019-10-05 08:00:00 15.7 6 Sudeste 13 Sudeste 0.2 1017.5 -0.2 96
2019-10-05 07:00:00 15.4 7 Sudeste 11 Sudeste 0 1017.5 -0.4 96
2019-10-05 06:00:00 15.9 10 Sur 13 Sur 0 1017.7 -0.5 94
2019-10-05 05:00:00 16 9 Sur 15 Sudoeste 0 1017.7 -0.5 94
2019-10-05 04:00:00 16.1 10 Sur 15 Sudoeste 0 1017.9 -0.6 93
2019-10-05 03:00:00 15.6 9 Sur 15 Sur 0 1018.2 -0.9 95
2019-10-05 02:00:00 15.9 11 Sur 13 Sur 0 1018.2 -0.9 94
2019-10-05 01:00:00 16.7 11 Sur 13 Sur 0 1018.5 -0.5 94
2019-10-05 00:00:00 16.7 9 Sudoeste 13 Sudoeste 0 1019.1 0.5 93
2019-10-04 23:00:00 16.9 11 Sudoeste 17 Sudoeste 0 1019.1 0.6 92
2019-10-04 22:00:00 17.2 9 Sudoeste 13 Sudoeste 0 1019 1.2 91
2019-10-04 21:00:00 17.3 10 Sudoeste 13 Sudoeste 0 1018.6 0.9 90
2019-10-04 20:00:00 17.6 9 Sudoeste 15 Sudoeste 0 1018.5 0.7 90
2019-10-04 19:00:00 18 10 Sudoeste 15 Sudoeste 0 1017.8 -0.3 87
2019-10-04 18:00:00 17.8 10 Sur 15 Sur 0 1017.7 -0.6 91
2019-10-04 17:00:00 18.1 3 Sur 11 Norte 0 1017.8 -0.7 85
2019-10-04 16:00:00 18.2 6 Sudoeste 17 Oeste 0 1018.1 -0.8 83
2019-10-04 15:00:00 18.6 13 Oeste 22 Oeste 0 1018.3 -0.5 84
2019-10-04 14:00:00 18.3 11 Sudoeste 18 Sudoeste 0.8 1018.5 -0.1 94
2019-10-04 13:00:00 18.5 10 Sudoeste 22 Oeste 0.3 1018.9 0.7 93
2019-10-04 12:00:00 17.5 10 Sudoeste 17 Oeste 0.7 1018.8 1.3 97
2019-10-04 11:00:00 17 12 Sudoeste 21 Sudoeste 1.1 1018.6 1.5 96
2019-10-04 10:00:00 16.9 12 Sur 17 Sudoeste 0 1018.2 1.2 92
2019-10-04 09:00:00 16.8 2 Sur 18 Sur 0 1017.5 0.5 88
2019-10-04 08:00:00 16.7 8 Sur 9 Sur 0 1017.1 -0.1 84
2019-10-04 07:00:00 16.4 8 Sudeste 9 Sudeste 0 1017 -0.2 86
2019-10-04 06:00:00 15.8 10 Sur -- -- -- 1017 -0.6 86
2019-10-04 05:00:00 17 7 Sudeste 15 Sur 0 1017.2 -0.6 78
2019-10-04 04:00:00 16.6 11 Sur 17 Sur 0 1017.2 -1 78
2019-10-04 03:00:00 16.2 10 Sur 17 Sur 0 1017.6 -1.3 80
2019-10-04 02:00:00 16.4 12 Sur 15 Sur 0 1017.8 -1.3 79
2019-10-04 01:00:00 15.6 9 Sur 13 Sur 0 1018.2 -0.6 85
2019-10-04 00:00:00 15.3 8 Sur 13 Sur 0 1018.9 0.3 86
2019-10-03 23:00:00 14.5 9 Sur 11 Sur 0 1019.1 0.8 89
2019-10-03 22:00:00 15.3 7 Sur 11 Sur 0 1018.8 0.5 85
2019-10-03 21:00:00 16.3 7 Sur 9 Sur 0 1018.6 0.2 80
2019-10-03 20:00:00 18 5 Sudoeste 11 Oeste 0 1018.3 -0.1 73
2019-10-03 19:00:00 20 6 Norte 11 Norte 0 1018.3 0 58
2019-10-03 18:00:00 20.4 8 Norte 15 Nordeste 0 1018.4 -0.1 57
2019-10-03 17:00:00 20.8 11 Nordeste 15 Nordeste 0 1018.4 -0.4 56
2019-10-03 16:00:00 20.9 9 Nordeste 18 Norte 0 1018.3 -0.7 56
2019-10-03 15:00:00 20.7 12 Norte 17 Norte 0 1018.5 -0.5 59
2019-10-03 14:00:00 20.6 9 Norte 15 Norte 0 1018.8 -0.5 60
2019-10-03 13:00:00 20.8 4 Sudeste 11 Este 0 1019 -0.2 52
2019-10-03 12:00:00 19.6 4 Sur 9 Sur 0 1019 -0.1 63
2019-10-03 11:00:00 17.9 7 Sudeste 13 Sudeste 0 1019.3 0.3 74
2019-10-03 10:00:00 16.2 6 Sudeste 13 Sudeste 0 1019.2 0.2 85
2019-10-03 09:00:00 14.7 11 Sudeste 13 Sudeste 0 1019.1 0 92
2019-10-03 08:00:00 14.9 9 Sudeste 11 Sudeste 0 1019 -0.4 93
2019-10-03 07:00:00 15 4 Sur 8 Sudeste 0 1019 -0.6 95
2019-10-03 06:00:00 15.1 3 Sur 9 Sudeste 0 1019.1 -1.3 95
2019-10-03 05:00:00 15.4 6 Sur 9 Sudeste 0 1019.4 -1.1 96
2019-10-03 04:00:00 15.6 6 Sur 8 Sur 0 1019.6 -1.5 93
2019-10-03 03:00:00 16.3 5 Sur 9 Sur 0 1020.4 -1.1 91
2019-10-03 02:00:00 16.3 5 Sudoeste 13 Sudoeste 0 1020.5 -1.4 90
2019-10-03 01:00:00 16.6 2 Sur 11 Sur 0 1021.1 -0.5 87
2019-10-03 00:00:00 17.2 6 Sur 9 Oeste 0 1021.5 0.3 85
2019-10-02 23:00:00 17.1 6 Oeste 21 Noroeste 0 1021.9 1.1 84
2019-10-02 22:00:00 17.6 10 Noroeste 17 Noroeste 0 1021.6 1.3 80
2019-10-02 21:00:00 17.5 3 Oeste 17 Oeste 0 1021.2 1.2 80
2019-10-02 20:00:00 17.9 7 Noroeste 15 Oeste 0 1020.8 0.7 77
2019-10-02 19:00:00 18.2 6 Oeste 17 Oeste 0 1020.3 0.7 83
2019-10-02 18:00:00 18.3 7 Oeste 17 Norte 0 1020 0.4 83
2019-10-02 17:00:00 17.2 9 Oeste 28 Noroeste 0.9 1020.1 1 88
2019-10-02 16:00:00 19.6 11 Noroeste 22 Noroeste 0 1019.6 0.5 76
2019-10-02 15:00:00 19.4 9 Noroeste 39 Noroeste 0 1019.6 1.1 73
2019-10-02 14:00:00 19.1 15 Noroeste 30 Noroeste 0.2 1019.1 1 84
2019-10-02 13:00:00 17.4 12 Noroeste 35 Sudoeste 2.7 1019.1 2 89
2019-10-02 12:00:00 18 7 Oeste 28 Noroeste 0.4 1018.5 2.3 85
2019-10-02 11:00:00 17.6 16 Noroeste 30 Noroeste 0.2 1018.1 2.6 87
2019-10-02 10:00:00 16.5 12 Sudoeste 32 Oeste 3.8 1017.1 1.7 90
2019-10-02 09:00:00 16.6 17 Oeste 42 Oeste 2.4 1016.2 1.3 90
2019-10-02 08:00:00 16.6 17 Sudoeste 35 Oeste 0 1015.5 0.8 90
2019-10-02 07:00:00 16.4 16 Oeste 42 Oeste 3.9 1015.4 0.3 92
2019-10-02 06:00:00 16.3 23 Sudoeste 48 Sudoeste 6.8 1014.9 -0.4 93
2019-10-02 05:00:00 17.4 17 Oeste 45 Sudoeste 1 1014.7 -0.3 81
2019-10-02 04:00:00 17.4 17 Sudoeste 37 Oeste 0.5 1015.1 -0.2 83
2019-10-02 03:00:00 16.8 10 Oeste 46 Noroeste 5.3 1015.3 0.1 90
2019-10-02 02:00:00 19.3 12 Oeste 41 Oeste 0 1015 0 72
2019-10-02 01:00:00 19.7 14 Sudoeste 26 Sudoeste 0 1015.3 0.5 67
2019-10-02 00:00:00 19.7 20 Sudoeste 37 Sudoeste 0 1015.2 0.7 71
2019-10-01 23:00:00 19.8 20 Oeste 35 Oeste 0 1015 0.9 70
2019-10-01 22:00:00 19.7 17 Oeste 33 Noroeste 0 1014.8 0.8 73
2019-10-01 21:00:00 19.6 15 Oeste 35 Noroeste 0 1014.5 0.7 76
2019-10-01 20:00:00 20.1 14 Oeste 30 Noroeste 0 1014.1 0.6 75
2019-10-01 19:00:00 20.5 15 Oeste 28 Oeste 0 1014 0.7 72
2019-10-01 18:00:00 20.7 16 Noroeste 32 Oeste 0 1013.8 0.5 69
2019-10-01 17:00:00 21.1 15 Noroeste 28 Oeste 0 1013.5 -0.1 72
2019-10-01 16:00:00 22.8 15 Oeste 28 Oeste 0 1013.3 -0.1 71
2019-10-01 15:00:00 22.5 16 Oeste 24 Oeste 0 1013.3 -0.2 74
2019-10-01 14:00:00 22 15 Oeste 30 Noroeste 0 1013.6 0.5 78
2019-10-01 13:00:00 22.8 13 Oeste 24 Sudoeste 0 1013.4 1.1 70
2019-10-01 12:00:00 21.9 13 Sudoeste 21 Sudoeste 0 1013.5 1.9 78
2019-10-01 11:00:00 20.9 12 Sudoeste 26 Oeste 0 1013.1 2.6 82
2019-10-01 10:00:00 19.1 13 Sudoeste 24 Sudoeste 0 1012.3 2.6 89
2019-10-01 09:00:00 18.7 18 Sudoeste 22 Sudoeste 0 1011.6 1.7 92
2019-10-01 08:00:00 16.6 4 Sudoeste 9 Sudoeste 0 1010.5 0.3 95
2019-10-01 07:00:00 16.9 5 Sur 13 Sur 0 1009.7 -1.8 95
2019-10-01 06:00:00 17.3 9 Sur 13 Sur 0 1009.9 -2.6 95
2019-10-01 05:00:00 17.4 10 Sudeste 13 Sur 0 1010.2 -2.2 94
2019-10-01 04:00:00 17.2 6 Sur 11 Sur 0 1011.5 -1.4 94
2019-10-01 03:00:00 17.5 4 Sur 8 Sur 0 1012.5 -0.4 93
2019-10-01 02:00:00 18 5 Sur 8 Sur 0 1012.4 -0.6 93
2019-10-01 01:00:00 18.3 3 Sur 8 Oeste 0 1012.9 -0.3 91
2019-10-01 00:00:00 19 4 Sudoeste 8 Sur 0 1012.9 -0.1 89
2019-09-30 23:00:00 19.4 5 Sur 11 Sur 0 1013 -0.1 88
2019-09-30 22:00:00 20.1 6 Sur 8 Sur 0 1013.2 -0.2 86
2019-09-30 21:00:00 20.7 0 Calma 5 Oeste 0 1013 -0.6 86
2019-09-30 20:00:00 21.9 5 Norte 13 Norte 0 1013.1 -1.1 84
2019-09-30 19:00:00 23 10 Norte 15 Norte 0 1013.4 -1.5 79
2019-09-30 18:00:00 23.6 11 Norte 17 Norte 0 1013.6 -1.9 73
2019-09-30 17:00:00 24 11 Norte 15 Norte 0 1014.2 -2.1 73
2019-09-30 16:00:00 24.4 11 Norte 18 Nordeste 0 1014.9 -2.2 71
2019-09-30 15:00:00 23.9 13 Norte 18 Norte 0 1015.5 -1.9 71
2019-09-30 14:00:00 23.8 12 Norte 17 Nordeste 0 1016.3 -1.3 71
2019-09-30 13:00:00 23 10 Norte 18 Nordeste 0 1017.1 -0.6 78
2019-09-30 12:00:00 22.6 11 Norte 13 Nordeste 0 1017.4 -0.1 77
2019-09-30 11:00:00 22 3 Este 13 Sudeste 0 1017.6 0.5 74
2019-09-30 10:00:00 20 6 Este 13 Sudeste 0 1017.7 0.5 83
2019-09-30 09:00:00 18.3 9 Sur 22 Sudeste 0 1017.5 0.1 92
2019-09-30 08:00:00 18 8 Sudeste 15 Sudeste 0 1017.1 -0.6 95
2019-09-30 07:00:00 17.8 10 Sur 13 Sur 0 1017.2 -0.8 97
2019-09-30 06:00:00 17.4 0 Calma 9 Sur 0 1017.4 -1 97
2019-09-30 05:00:00 17.5 8 Sur 9 Sur 0.1 1017.7 -0.9 92
2019-09-30 04:00:00 18.9 0 Calma 8 Sudeste 0 1018 -0.7 85
2019-09-30 03:00:00 18.9 3 Sur 11 Sur 0 1018.4 -0.4 81
2019-09-30 02:00:00 19 8 Sur -- -- 0 1018.6 0 80
2019-09-30 01:00:00 19.1 5 Sur 11 Sur 0 1018.7 0.5 78
2019-09-30 00:00:00 19.5 5 Sur 11 Sur 0 1018.8 1.4 76
2019-09-29 23:00:00 19.4 8 Sur 9 Sur 0 1018.6 1.9 74
2019-09-29 22:00:00 19.2 8 Sur 9 Sur 0 1018.2 1.9 75
2019-09-29 21:00:00 20.3 9 Sur 11 Sur 0 1017.4 1.4 69
2019-09-29 20:00:00 21.6 6 Sudoeste 11 Sur 0 1016.7 1.3 64
2019-09-29 19:00:00 23.7 4 Este 11 Norte 0 1016.3 1.1 47
2019-09-29 18:00:00 24.1 10 Nordeste 17 Norte 0 1016 0.6 49
2019-09-29 17:00:00 25.6 9 Nordeste 13 Nordeste 0 1015.4 -0.1 35
2019-09-29 16:00:00 25.4 7 Este 13 Este 0 1015.2 0.4 39
2019-09-29 15:00:00 23.9 6 Nordeste 17 Nordeste 0 1015.4 0.7 56
2019-09-29 14:00:00 23.9 17 Nordeste 24 Norte 0 1015.5 1 63
2019-09-29 13:00:00 23.2 16 Nordeste 21 Nordeste 0 1014.8 0.9 78
2019-09-29 12:00:00 23.1 12 Nordeste 15 Este 0 1014.7 0.9 73
2019-09-29 11:00:00 21.4 0 Calma 8 Sudoeste 0 1014.5 0.9 71
2019-09-29 10:00:00 17.2 5 Sur 13 Sudeste 0 1013.9 0.2 88
2019-09-29 09:00:00 14.5 6 Sur 13 Sudeste 0 1013.8 0 95
2019-09-29 08:00:00 13.2 5 Sudoeste 9 Sudoeste 0 1013.6 -0.5 95
2019-09-29 07:00:00 14.1 5 Sudoeste 9 Sudoeste 0 1013.7 -0.6 96
2019-09-29 06:00:00 14.3 6 Sur 9 Sur 0 1013.8 -1.2 96
2019-09-29 05:00:00 14.7 2 Sudoeste 9 Sudoeste 0 1014.1 -0.9 96
2019-09-29 04:00:00 15.3 3 Sudeste 11 Sudoeste 0 1014.3 -1.3 95
2019-09-29 03:00:00 15.8 4 Sur 13 Sudoeste 0 1015 -1.2 95
2019-09-29 02:00:00 15.9 2 Norte 11 Sur 0 1015 -1.5 94
2019-09-29 01:00:00 16.8 6 Sur 11 Sur 0 1015.6 -1 94
2019-09-29 00:00:00 17.1 11 Sur 13 Sur 0 1016.2 -0.8 93
2019-09-28 23:00:00 17.4 5 Sudoeste 13 Sur 0 1016.5 -0.6 91
2019-09-28 22:00:00 17.9 7 Sur 11 Sur 0 1016.6 -0.8 90
2019-09-28 21:00:00 19.6 4 Este 8 Este 0 1017 -0.6 83
2019-09-28 20:00:00 20.3 6 Este 17 Nordeste 0 1017.1 -1.1 80
2019-09-28 19:00:00 20.8 11 Nordeste 17 Nordeste 0 1017.4 -1.9 75
2019-09-28 18:00:00 21.5 10 Norte 18 Nordeste 0 1017.6 -2.3 72
2019-09-28 17:00:00 21.4 13 Nordeste 18 Nordeste 0 1018.2 -2.5 71
2019-09-28 16:00:00 21.4 12 Nordeste 21 Nordeste 0 1019.3 -2.1 69
2019-09-28 15:00:00 21 13 Norte 18 Norte 0 1019.9 -1.8 71
2019-09-28 14:00:00 20.9 12 Norte 18 Nordeste 0 1020.7 -1.2 72
2019-09-28 13:00:00 20.7 12 Nordeste 17 Nordeste 0 1021.4 -0.5 74
2019-09-28 12:00:00 20.4 4 Norte 8 Norte 0 1021.7 0.1 73
2019-09-28 11:00:00 19.1 2 Sur 5 Sudeste 0 1021.9 0.6 78
2019-09-28 10:00:00 17.1 2 Sudeste 8 Sudeste 0 1021.9 0.3 90
2019-09-28 09:00:00 16.5 7 Sur 11 Sur 0 1021.6 -0.2 94
2019-09-28 08:00:00 16 6 Sudoeste 13 Sur 0 1021.3 -0.6 96
2019-09-28 07:00:00 16.2 8 Sur 11 Sur 0 1021.6 -0.2 96
2019-09-28 06:00:00 16.1 2 Sudeste 9 Oeste 0.3 1021.8 0 95
2019-09-28 05:00:00 16.5 3 Norte 13 Norte 1.5 1021.9 0.2 95
2019-09-28 04:00:00 16.5 8 Sur 17 Sudoeste 0 1021.8 -0.1 94
2019-09-28 03:00:00 16.3 14 Sudoeste 24 Sudoeste 0 1021.8 -0.1 95
2019-09-28 02:00:00 16.6 11 Sudoeste 17 Oeste 0.2 1021.7 0.1 94
2019-09-28 01:00:00 16.8 11 Sudoeste 17 Sur 0 1021.9 0.8 90
2019-09-28 00:00:00 17.2 12 Sur 18 Oeste 1.2 1021.9 1.5 90
2019-09-27 23:00:00 18.2 10 Oeste 28 Oeste 0.1 1021.6 1.7 89
2019-09-27 22:00:00 20.1 4 Oeste 11 Oeste 0 1021.1 1.8 79
2019-09-27 21:00:00 20.1 4 Sur 11 Oeste 0 1020.4 1.6 81
2019-09-27 20:00:00 20.3 6 Norte 13 Norte 0 1019.9 1.4 80
2019-09-27 19:00:00 20.8 9 Norte 18 Norte 0 1019.3 0.7 79
2019-09-27 18:00:00 21.9 12 Norte 18 Norte 0 1018.8 -0.3 73
2019-09-27 17:00:00 23.4 12 Norte 18 Norte 0 1018.5 -0.9 66
2019-09-27 16:00:00 23.2 12 Norte 21 Norte 0 1018.6 -0.3 70
2019-09-27 15:00:00 23.6 11 Noroeste 26 Noroeste 0 1019.1 0.2 64
2019-09-27 14:00:00 22.6 14 Noroeste 32 Noroeste 0 1019.4 0.6 76
2019-09-27 13:00:00 23.6 10 Noroeste 22 Oeste 0 1018.9 0.4 56
2019-09-27 12:00:00 23 3 Sudeste 8 Sudeste 0 1018.9 0.5 58
2019-09-27 11:00:00 20.1 7 Sudeste 17 Sudeste 0 1018.8 0.7 69
2019-09-27 10:00:00 18.2 11 Sur 17 Sur 0 1018.5 0.6 73
2019-09-27 09:00:00 15.9 11 Sur 15 Sur 0 1018.4 0.2 88
2019-09-27 08:00:00 15.5 12 Sur 17 Sur 0 1018.1 -0.3 90
2019-09-27 07:00:00 15.7 13 Sur 17 Sur 0 1017.9 -0.5 92
2019-09-27 06:00:00 15.3 7 Sur 13 Sur 0 1018.2 -0.6 94
2019-09-27 05:00:00 15.7 4 Sur 13 Sur 0 1018.4 -0.3 93
2019-09-27 04:00:00 15.9 2 Sur 13 Sudoeste 0 1018.4 -0.2 93
2019-09-27 03:00:00 16.2 9 Sudoeste 13 Sudoeste 0 1018.8 0.2 93
2019-09-27 02:00:00 16.8 9 Sudoeste 15 Este 0 1018.7 -0.4 90
2019-09-27 01:00:00 18.6 14 Este 18 Este 0 1018.6 -0.6 85
2019-09-27 00:00:00 19 6 Sur 13 Sudeste 0 1018.6 0 81
2019-09-26 23:00:00 19.6 0 Calma 13 Este 0 1019.1 0.8 76
2019-09-26 22:00:00 19.7 7 Nordeste 11 Nordeste 0 1019.2 1.1 76
2019-09-26 21:00:00 20 4 Norte 11 Norte 0 1018.6 0.6 75
2019-09-26 20:00:00 20.2 4 Norte 9 Nordeste 0 1018.3 0.3 75
2019-09-26 19:00:00 20.4 5 Norte 11 Este 0 1018.1 0 76
2019-09-26 18:00:00 20.9 8 Norte 15 Norte 0 1018 -0.3 74
2019-09-26 17:00:00 21.1 10 Norte 17 Norte 0 1018 -0.8 72
2019-09-26 16:00:00 21.5 11 Nordeste 18 Nordeste 0 1018.1 -0.6 73
2019-09-26 15:00:00 21.6 12 Nordeste 17 Nordeste 0 1018.3 -0.6 71
2019-09-26 14:00:00 21.7 13 Nordeste 18 Norte 0 1018.8 -0.1 72
2019-09-26 13:00:00 22 11 Norte 15 Norte 0 1018.7 0 70
2019-09-26 12:00:00 21.2 4 Nordeste 15 Sudeste 0 1018.9 0.5 68
2019-09-26 11:00:00 19 0 Calma 9 Sudeste 0 1018.9 0.6 75
2019-09-26 10:00:00 17.7 7 Sur 13 Sur 0 1018.7 0.6 79
2019-09-26 09:00:00 16.2 8 Sudeste 22 Sur 0 1018.4 0.5 86
2019-09-26 08:00:00 15.9 8 Sur -- -- 0 1018.3 0.4 87
2019-09-26 07:00:00 15.6 5 Sudoeste 13 Sudeste 0 1018.1 0 89
2019-09-26 06:00:00 16.2 5 Sur 9 Sudeste 0 1017.9 -0.6 88
2019-09-26 05:00:00 17 7 Sudeste 13 Sur 0 1017.9 -0.6 84
2019-09-26 04:00:00 17.2 10 Sur 15 Sur 0 1018.1 -0.5 84
2019-09-26 03:00:00 18.3 8 Sudeste 11 Sur 0 1018.5 0 82
2019-09-26 02:00:00 18.6 7 Sur 9 Sur 0 1018.5 0.1 81
2019-09-26 01:00:00 18.6 6 Sur 11 Sur 0 1018.6 0.3 82
2019-09-26 00:00:00 18.6 8 Sur 11 Sur 0 1018.5 0.5 83
2019-09-25 23:00:00 18.8 9 Sur 13 Sur 0 1018.4 0.5 81
2019-09-25 22:00:00 19.2 9 Sur 11 Sur 0 1018.3 0.5 79
2019-09-25 21:00:00 19.6 6 Sudoeste 13 Oeste 0 1018 0.4 73
2019-09-25 20:00:00 20 8 Oeste 13 Oeste 0 1017.9 0.2 70
2019-09-25 19:00:00 20.6 8 Oeste 22 Noroeste 0 1017.8 0 66
2019-09-25 18:00:00 21.5 10 Oeste 22 Sudoeste 0 1017.6 -0.1 63
2019-09-25 17:00:00 21.3 9 Oeste 22 Noroeste 0 1017.7 -0.3 63
2019-09-25 16:00:00 21.5 17 Oeste 32 Oeste 0 1017.8 -0.4 61
2019-09-25 15:00:00 22.2 19 Oeste 33 Oeste 0 1017.7 -0.8 57
2019-09-25 14:00:00 22.4 11 Oeste 30 Sudoeste 0 1018 -0.2 54
2019-09-25 13:00:00 20.8 10 Oeste 26 Sudoeste 0 1018.2 0.5 59
2019-09-25 12:00:00 20.6 12 Oeste 28 Oeste 0 1018.5 1.1 61
2019-09-25 11:00:00 19.8 11 Oeste 22 Oeste 0 1018.2 1.3 65
2019-09-25 10:00:00 18.3 11 Oeste 18 Sudoeste 0 1017.7 1 72
2019-09-25 09:00:00 16.9 16 Sudoeste 24 Sudoeste 0 1017.4 0.8 81
2019-09-25 08:00:00 17 12 Sudoeste 21 Sudoeste 0.2 1016.9 0.4 85
2019-09-25 07:00:00 17.1 11 Sudoeste 17 Noroeste 0 1016.7 0 85
2019-09-25 06:00:00 17.2 4 Noroeste 17 Sudoeste 0 1016.6 -0.6 84
2019-09-25 05:00:00 17.2 12 Sudoeste 18 Sudoeste 0 1016.5 -0.3 84
2019-09-25 04:00:00 17.1 14 Sudoeste 21 Sudoeste 0 1016.7 -0.6 84
2019-09-25 03:00:00 16.9 13 Sudoeste 18 Sudoeste 0 1017.2 -0.3 87
2019-09-25 02:00:00 16.8 12 Sudoeste 18 Sudoeste 0 1016.8 -0.9 88
2019-09-25 01:00:00 16.8 15 Sudoeste 24 Sudoeste 0.1 1017.3 0.1 91
2019-09-25 00:00:00 17.4 14 Sudoeste 22 Sudoeste 0 1017.5 0.8 87
2019-09-24 23:00:00 17.8 7 Noroeste 21 Sudoeste 0.1 1017.7 1.4 88
2019-09-24 22:00:00 18.8 12 Sudoeste 22 Sudoeste 0 1017.2 1.1 80
2019-09-24 21:00:00 20 7 Oeste 13 Sudoeste 0 1016.7 0.7 74
2019-09-24 20:00:00 20.5 8 Sudoeste 18 Sudoeste 0 1016.3 0.5 74
2019-09-24 19:00:00 20.8 10 Sudoeste 17 Sudoeste 0 1016.1 0.4 72
2019-09-24 18:00:00 21.1 9 Sudoeste 22 Oeste 0 1016 0.6 71
2019-09-24 17:00:00 21.5 11 Oeste 28 Oeste 0 1015.8 1.3 68
2019-09-24 16:00:00 21.1 13 Oeste 37 Oeste 0 1015.7 1.4 69
2019-09-24 15:00:00 22.9 21 Noroeste 33 Norte 0 1015.4 1.1 76
2019-09-24 14:00:00 24.8 12 Norte 21 Norte 0 1014.5 0.2 68
2019-09-24 13:00:00 24.4 12 Norte 17 Norte 0 1014.3 0.3 68
2019-09-24 12:00:00 23.9 9 Norte 15 Noroeste 0 1014.3 1.1 67
2019-09-24 11:00:00 22.5 9 Oeste 26 Oeste 0 1014.3 2 70
2019-09-24 10:00:00 22.7 9 Oeste 18 Oeste 0 1014 3 63
2019-09-24 09:00:00 24.1 10 Sudoeste 28 Oeste 0 1013.2 2.4 42
2019-09-24 08:00:00 23.9 20 Sudoeste 32 Oeste 0 1012.3 1 43
2019-09-24 07:00:00 20.1 11 Sur 17 Sudoeste 0 1011 -1 60
2019-09-24 06:00:00 17.5 8 Sur 15 Sur 0 1010.8 -2.3 81
2019-09-24 05:00:00 16.4 0 Calma 13 Sudoeste 0 1011.3 -3.1 85
2019-09-24 04:00:00 16.6 12 Sudoeste 15 Sudoeste 0 1012 -3.3 89
2019-09-24 03:00:00 17.6 7 Sudoeste 9 Sudoeste 0 1013.1 -3 86
2019-09-24 02:00:00 18.7 7 Sur 13 Sur 0 1014.4 -1.8 82
2019-09-24 01:00:00 18.9 5 Sudoeste 9 Sur 0 1015.3 -1.1 83
2019-09-24 00:00:00 19.2 7 Sur 8 Sur 0 1016.1 -0.3 83
2019-09-23 23:00:00 19.4 3 Sur 8 Sur 0 1016.2 0 82
2019-09-23 22:00:00 19.7 4 Sur 9 Sudoeste 0 1016.4 0.2 82
2019-09-23 21:00:00 20.5 3 Oeste 8 Oeste 0 1016.4 0.2 77
2019-09-23 20:00:00 21.3 0 Calma 8 Norte 0 1016.2 -0.1 70
2019-09-23 19:00:00 22 7 Norte 13 Norte 0 1016.2 -0.1 69
2019-09-23 18:00:00 22.3 9 Norte 13 Norte 0 1016.2 -0.2 66
2019-09-23 17:00:00 22.5 10 Norte 15 Norte 0 1016.3 -0.3 61
2019-09-23 16:00:00 22.7 9 Norte 13 Norte 0 1016.3 -0.8 59
2019-09-23 15:00:00 22.4 13 Norte 17 Norte 0 1016.4 -1.4 62
2019-09-23 14:00:00 22.5 9 Norte 11 Nordeste 0 1016.6 -1.5 61
2019-09-23 13:00:00 21.9 0 Calma 8 Sur 0 1017.1 -0.7 58
2019-09-23 12:00:00 20.3 0 Calma 8 Sudeste 0 1017.8 0.1 65
2019-09-23 11:00:00 18.8 6 Sur 11 Sur 0 1018.1 0.2 71
2019-09-23 10:00:00 16.8 5 Sur 17 Sur 0 1017.8 0 82
2019-09-23 09:00:00 15 9 Sudoeste 13 Sudoeste 0 1017.7 -0.1 89
2019-09-23 08:00:00 14.1 10 Sudoeste 18 Oeste 0 1017.9 0.3 92
2019-09-23 07:00:00 14.1 6 Sur 9 Sur 0 1017.8 0.3 92
2019-09-23 06:00:00 14.4 6 Sur 9 Sur 0 1017.8 0.1 93
2019-09-23 05:00:00 14.2 9 Sur 11 Sur 0 1017.6 -0.2 93
2019-09-23 04:00:00 14.7 9 Sur 11 Sur 0 1017.5 -0.2 93
2019-09-23 03:00:00 14.8 6 Sur 11 Sur 0 1017.7 0.1 92
2019-09-23 02:00:00 15.5 9 Sur 13 Sur 0 1017.8 0.3 91
2019-09-23 01:00:00 15.8 8 Sur 9 Sur 0 1017.7 0.8 90
2019-09-23 00:00:00 16.5 6 Sur 11 Sur 0 1017.6 1.2 88
2019-09-22 23:00:00 17.6 7 Sur 9 Sudeste 0 1017.5 1.8 85
2019-09-22 22:00:00 18.4 6 Sur 18 Sudeste 0 1016.9 1.6 80
2019-09-22 21:00:00 19.6 9 Sur 13 Sur 0 1016.4 2 75
2019-09-22 20:00:00 20 4 Noroeste 17 Noroeste 0 1015.7 1.7 69
2019-09-22 19:00:00 21.9 8 Norte 21 Norte 0 1015.3 1.6 61
2019-09-22 18:00:00 22.7 9 Norte 18 Noroeste 0 1014.4 1.2 58
2019-09-22 17:00:00 23.1 13 Noroeste 21 Noroeste 0 1014 0.8 56
2019-09-22 16:00:00 23 9 Noroeste 18 Norte 0 1013.7 0.7 56
2019-09-22 15:00:00 22.4 9 Norte 13 Nordeste 0 1013.2 0.2 59
2019-09-22 14:00:00 21.5 5 Oeste 11 Sur 0 1013.2 0.4 70
2019-09-22 13:00:00 20 2 Sur 11 Sudoeste 0 1013 0.7 82
2019-09-22 12:00:00 18.4 5 Sur 13 Sudoeste 0 1013 1.4 89
2019-09-22 11:00:00 17.9 10 Sudoeste 13 Sudoeste 0 1012.8 1.9 93
2019-09-22 10:00:00 16.8 10 Sur 13 Sur 0.4 1012.3 2.3 97
2019-09-22 09:00:00 16.7 0 Calma 11 Este 3.2 1011.6 2.2 95
2019-09-22 08:00:00 16.7 8 Noroeste 24 Noroeste 1.9 1010.9 2 94
2019-09-22 07:00:00 17.4 7 Noroeste 21 Noroeste 6.5 1010 1.6 94
2019-09-22 06:00:00 17.9 4 Noroeste 24 Noroeste 1.9 1009.4 2.8 91
2019-09-22 05:00:00 19.4 10 Oeste 32 Noroeste 0.4 1008.9 2.9 88
2019-09-22 04:00:00 20.6 18 Oeste 45 Oeste 0 1008.4 2.5 84
2019-09-22 03:00:00 25 12 Sudoeste 24 Sudoeste 0 1006.6 0.8 53
2019-09-22 02:00:00 25.4 13 Sudoeste 30 Sur 0 1006 0.3 50
2019-09-22 01:00:00 25.4 8 Sur 26 Sur 0 1005.9 -0.1 49
2019-09-22 00:00:00 25.2 16 Sur 41 Sur 0 1005.8 0 49